Owls Head, ME

7:40 AM EST on December 06, 2016 (GMT -0500)
Knox County Regional

Weather History for KRKD - January, 2013

Change the Weather History Date:

Thursday, January 17, 2013

  Actual Average Record
Temperature  
Mean Temperature 27 °F -  
Max Temperature 39 °F 25 °F 46 °F (1999)
Min Temperature 14 °F 11 °F -9 °F (2009)
Degree Days  
Heating Degree Days 38    
Moisture  
Dew Point 19 °F    
Average Humidity 68    
Maximum Humidity 100    
Minimum Humidity 36    
Precipitation  
Precipitation 0.01 in - - ()
Sea Level Pressure  
Sea Level Pressure 29.90 in    
Wind  
Wind Speed 10 mph (WNW)    
Max Wind Speed 18 mph    
Max Gust Speed 28 mph    
Visibility 10 miles    
Events      
Averages and records for this station are not official NWS values.
T = Trace of Precipitation, MM = Missing Value Source: NWS Daily Summary

Daily Weather History Graph

Daily Weather History Graph

Search for Another Location

Airport or City:

Trip Planner

Search our weather history database for the weather conditions in past years. The results will help you decide how hot, cold, wet, or windy it might be!

Date:

Astronomy

Jan. 17, 2013 Rise Set
Actual Time 7:06 AM EST 4:26 PM EST
Civil Twilight 6:34 AM EST 4:58 PM EST
Nautical Twilight 5:59 AM EST 5:34 PM EST
Astronomical Twilight 5:24 AM EST 6:08 PM EST
Moon 9:56 AM EST (1/17) 11:31 PM EST (1/17)
Length of Visible Light 10h 23m
Length of Day
9h 20m
Waxing Crescent, 37% of the Moon is Illuminated
Jan 17
Waxing Crescent
Jan 18
First Quarter
Jan 26
Full
Feb 3
Last Quarter
Feb 10
New

Hourly Weather History & Observations

Time (EST) Temp. Windchill Dew Point Humidity Pressure Visibility Wind Dir Wind Speed Gust Speed Precip Events Conditions
12:15 AM 35.6 °F 28.6 °F 35.6 °F 100% 29.74 in 10.0 mi West 9.2 mph - N/A   Overcast
12:35 AM 35.6 °F 28.0 °F 33.8 °F 93% 29.74 in 10.0 mi West 10.4 mph - 0.01 in   Overcast
12:55 AM 33.8 °F 25.8 °F 33.8 °F 100% 29.75 in 10.0 mi West 10.4 mph - 0.01 in   Overcast
1:15 AM 33.8 °F 26.4 °F 33.8 °F 100% 29.74 in 10.0 mi West 9.2 mph - N/A   Overcast
1:35 AM 33.8 °F 25.8 °F 30.2 °F 87% 29.75 in 10.0 mi WSW 10.4 mph 18.4 mph N/A   Mostly Cloudy
1:55 AM 32.0 °F 23.6 °F 30.2 °F 93% 29.75 in 10.0 mi WSW 10.4 mph - N/A   Overcast
2:15 AM 32.0 °F 21.6 °F 30.2 °F 93% 29.76 in 10.0 mi West 15.0 mph - N/A   Overcast
2:35 AM 32.0 °F 25.6 °F 30.2 °F 93% 29.76 in 10.0 mi West 6.9 mph - N/A   Overcast
2:55 AM 32.0 °F 23.6 °F 30.2 °F 93% 29.76 in 10.0 mi West 10.4 mph - N/A   Overcast
3:15 AM 30.2 °F 20.2 °F 30.2 °F 100% 29.75 in 10.0 mi West 12.7 mph - N/A   Scattered Clouds
3:35 AM 30.2 °F 21.3 °F 30.2 °F 100% 29.75 in 10.0 mi West 10.4 mph - N/A   Partly Cloudy
3:55 AM 30.2 °F 22.6 °F 28.4 °F 93% 29.75 in 10.0 mi West 8.1 mph - N/A   Scattered Clouds
4:35 AM 30.2 °F 21.9 °F 28.4 °F 93% 29.75 in 10.0 mi West 9.2 mph - N/A   Scattered Clouds
4:55 AM 30.2 °F 21.9 °F 28.4 °F 93% 29.75 in 10.0 mi WSW 9.2 mph - N/A   Mostly Cloudy
5:15 AM 30.2 °F 24.3 °F 28.4 °F 93% 29.74 in 10.0 mi West 5.8 mph - N/A   Mostly Cloudy
5:35 AM 30.2 °F 22.6 °F 28.4 °F 93% 29.75 in 10.0 mi West 8.1 mph - N/A   Overcast
5:55 AM 30.2 °F 23.4 °F 28.4 °F 93% 29.76 in 10.0 mi WSW 6.9 mph - N/A   Mostly Cloudy
6:35 AM 28.4 °F 23.3 °F 26.6 °F 93% 29.76 in 10.0 mi West 4.6 mph - N/A   Clear
6:55 AM 28.4 °F 24.6 °F 26.6 °F 93% 29.77 in 10.0 mi WSW 3.5 mph - N/A   Partly Cloudy
7:15 AM 28.4 °F 22.2 °F 26.6 °F 93% 29.77 in 10.0 mi WSW 5.8 mph - N/A   Partly Cloudy
7:35 AM 28.4 °F 21.2 °F 26.6 °F 93% 29.79 in 10.0 mi WSW 6.9 mph - N/A   Clear
7:55 AM 28.4 °F 19.7 °F 26.6 °F 93% 29.80 in 10.0 mi West 9.2 mph - N/A   Partly Cloudy
8:15 AM 30.2 °F 21.9 °F 26.6 °F 86% 29.80 in 10.0 mi WSW 9.2 mph - N/A   Clear
8:35 AM 32.0 °F 23.0 °F 26.6 °F 80% 29.82 in 10.0 mi West 11.5 mph - N/A   Clear
8:55 AM 32.0 °F 23.0 °F 28.4 °F 87% 29.82 in 10.0 mi West 11.5 mph - N/A   Clear
9:15 AM 33.8 °F 25.3 °F 28.4 °F 81% 29.84 in 10.0 mi West 11.5 mph - N/A   Clear
9:35 AM 33.8 °F 25.3 °F 28.4 °F 81% 29.84 in 10.0 mi West 11.5 mph - N/A   Clear
9:55 AM 35.6 °F 29.9 °F 28.4 °F 75% 29.84 in 10.0 mi WSW 6.9 mph - N/A   Clear
10:15 AM 35.6 °F 28.6 °F 28.4 °F 75% 29.84 in 10.0 mi WSW 9.2 mph - N/A   Clear
10:35 AM 37.4 °F 32.1 °F 28.4 °F 70% 29.84 in 10.0 mi SW 6.9 mph - N/A   Clear
10:55 AM 37.4 °F 32.1 °F 28.4 °F 70% 29.83 in 10.0 mi SW 6.9 mph - N/A   Clear
11:15 AM 37.4 °F 30.8 °F 28.4 °F 70% 29.83 in 10.0 mi WSW 9.2 mph - N/A   Clear
11:35 AM 37.4 °F 30.3 °F 28.4 °F 70% 29.83 in 10.0 mi West 10.4 mph - N/A   Clear
11:55 AM 39.2 °F 31.2 °F 28.4 °F 65% 29.83 in 10.0 mi WSW 13.8 mph - N/A   Clear
12:15 PM 37.4 °F 30.8 °F 28.4 °F 70% 29.83 in 10.0 mi WSW 9.2 mph - N/A   Clear
12:35 PM 37.4 °F 29.3 °F 28.4 °F 70% 29.84 in 10.0 mi West 12.7 mph - N/A   Clear
12:55 PM 37.4 °F 28.9 °F 28.4 °F 70% 29.85 in 10.0 mi West 13.8 mph - N/A   Clear
1:15 PM 37.4 °F 28.9 °F 28.4 °F 70% 29.86 in 10.0 mi WSW 13.8 mph - N/A   Partly Cloudy
1:35 PM 37.4 °F 29.3 °F 28.4 °F 70% 29.88 in 10.0 mi WNW 12.7 mph 19.6 mph N/A   Mostly Cloudy
2:15 PM 35.6 °F 27.1 °F 24.8 °F 65% 29.91 in 10.0 mi West 12.7 mph 19.6 mph N/A   Scattered Clouds
2:35 PM 35.6 °F 25.9 °F 26.6 °F 70% 29.91 in 10.0 mi WNW 16.1 mph 23.0 mph N/A   Partly Cloudy
2:55 PM 35.6 °F 26.2 °F 24.8 °F 65% 29.93 in 10.0 mi West 15.0 mph 20.7 mph N/A   Clear
3:15 PM 33.8 °F 24.3 °F 15.8 °F 48% 29.94 in 10.0 mi WNW 13.8 mph 27.6 mph N/A   Clear
3:35 PM 33.8 °F 22.8 °F 14.0 °F 44% 29.95 in 10.0 mi WNW 18.4 mph 25.3 mph N/A   Clear
3:55 PM 33.8 °F 23.5 °F 12.2 °F 41% 29.96 in 10.0 mi WNW 16.1 mph 21.9 mph N/A   Clear
4:15 PM 32.0 °F 23.0 °F 14.0 °F 48% 29.98 in 10.0 mi WNW 11.5 mph 18.4 mph N/A   Clear
4:35 PM 30.2 °F 20.2 °F 12.2 °F 47% 29.99 in 10.0 mi West 12.7 mph 18.4 mph N/A   Clear
4:55 PM 30.2 °F 21.3 °F 12.2 °F 47% 30.00 in 10.0 mi WNW 10.4 mph 18.4 mph N/A   Clear
5:15 PM 30.2 °F 20.2 °F 8.6 °F 40% 30.00 in 10.0 mi WNW 12.7 mph 17.3 mph N/A   Clear
5:35 PM 28.4 °F 19.7 °F 8.6 °F 43% 30.02 in 10.0 mi WNW 9.2 mph - N/A   Clear
5:55 PM 28.4 °F 22.2 °F 10.4 °F 47% 30.03 in 10.0 mi NW 5.8 mph - N/A   Clear
6:15 PM 26.6 °F 17.5 °F 6.8 °F 43% 30.05 in 10.0 mi NNW 9.2 mph 16.1 mph N/A   Clear
6:35 PM 24.8 °F 16.1 °F 3.2 °F 40% 30.07 in 10.0 mi NW 8.1 mph 19.6 mph N/A   Clear
6:55 PM 24.8 °F 16.9 °F 1.4 °F 36% 30.08 in 10.0 mi NNW 6.9 mph - N/A   Clear
7:15 PM 23.0 °F 12.4 °F -0.4 °F 36% 30.07 in 10.0 mi NNW 10.4 mph - N/A   Clear
7:35 PM 23.0 °F 13.9 °F -0.4 °F 36% 30.10 in 10.0 mi NW 8.1 mph - N/A   Clear
7:55 PM 21.2 °F 12.6 °F -0.4 °F 39% 30.10 in 10.0 mi NW 6.9 mph - N/A   Clear
8:15 PM 21.2 °F 11.7 °F -0.4 °F 39% 30.10 in 10.0 mi NW 8.1 mph 17.3 mph N/A   Clear
8:35 PM 19.4 °F 9.5 °F -0.4 °F 42% 30.11 in 10.0 mi North 8.1 mph - N/A   Clear
8:55 PM 19.4 °F 8.6 °F -2.2 °F 39% 30.12 in 10.0 mi North 9.2 mph - N/A   Clear
9:15 PM 19.4 °F 11.5 °F -2.2 °F 39% 30.11 in 10.0 mi North 5.8 mph - N/A   Clear
9:55 PM 17.6 °F 10.7 °F -2.2 °F 42% 30.09 in 10.0 mi North 4.6 mph 16.1 mph N/A   Clear
10:15 PM 17.6 °F 7.3 °F -2.2 °F 42% 30.09 in 10.0 mi North 8.1 mph - N/A   Clear
10:35 PM 17.6 °F 6.4 °F -4.0 °F 38% 30.10 in 10.0 mi North 9.2 mph 17.3 mph N/A   Clear
10:55 PM 15.8 °F 5.1 °F -4.0 °F 41% 30.08 in 10.0 mi NNE 8.1 mph - N/A   Clear
11:15 PM 15.8 °F 7.2 °F -4.0 °F 41% 30.10 in 10.0 mi North 5.8 mph - N/A   Clear
11:35 PM 15.8 °F 5.1 °F -4.0 °F 41% 30.11 in 10.0 mi North 8.1 mph - N/A   Clear
11:55 PM 14.0 °F 2.0 °F -5.8 °F 41% 30.10 in 10.0 mi NNE 9.2 mph 16.1 mph N/A   Clear